createdAt,value
2018-05-16T00:00:00.838Z,68.00
2018-05-16T00:02:29.086Z,68.00
2018-05-16T00:04:57.369Z,67.50
2018-05-16T00:07:25.848Z,68.50
2018-05-16T00:09:54.098Z,68.70
2018-05-16T00:12:22.530Z,68.60
2018-05-16T00:14:50.797Z,70.20
2018-05-16T00:17:19.073Z,69.60
2018-05-16T00:19:47.357Z,69.60
2018-05-16T00:22:15.655Z,70.30
2018-05-16T00:24:43.949Z,70.40
2018-05-16T00:27:12.981Z,70.80
2018-05-16T00:29:41.268Z,70.70
2018-05-16T00:32:09.535Z,71.40
2018-05-16T00:34:37.902Z,71.30
2018-05-16T00:37:06.294Z,72.00
2018-05-16T00:39:34.564Z,72.80
2018-05-16T00:42:02.850Z,72.70
2018-05-16T00:44:31.125Z,73.40
2018-05-16T00:46:59.417Z,72.80
2018-05-16T00:49:27.871Z,72.90
2018-05-16T00:51:56.157Z,73.30
2018-05-16T00:54:24.477Z,73.30
2018-05-16T00:56:52.878Z,73.30
2018-05-16T00:59:21.382Z,73.50
2018-05-16T01:01:49.713Z,74.10
2018-05-16T01:04:18.760Z,74.50
2018-05-16T01:06:47.033Z,74.30
2018-05-16T01:09:15.306Z,74.50
2018-05-16T01:11:43.614Z,75.00
2018-05-16T01:14:11.893Z,75.00
2018-05-16T01:16:40.937Z,76.00
2018-05-16T01:19:09.218Z,75.80
2018-05-16T01:21:37.498Z,76.70
2018-05-16T01:24:05.765Z,76.30
2018-05-16T01:26:34.054Z,76.80
2018-05-16T01:29:02.330Z,77.20
2018-05-16T01:31:30.627Z,77.00
2018-05-16T01:33:58.899Z,77.20
2018-05-16T01:36:27.240Z,77.80
2018-05-16T01:38:55.671Z,78.00
2018-05-16T01:41:24.734Z,78.30
2018-05-16T01:43:53.032Z,78.20
2018-05-16T01:46:21.293Z,78.40
2018-05-16T01:49:01.615Z,79.30
2018-05-16T01:51:29.853Z,79.00
2018-05-16T01:53:58.922Z,79.50
2018-05-16T01:56:27.201Z,79.60
2018-05-16T01:58:55.472Z,79.30
2018-05-16T02:01:23.727Z,80.30
2018-05-16T02:03:52.031Z,80.30
2018-05-16T02:06:20.293Z,81.20
2018-05-16T02:08:48.692Z,81.30
2018-05-16T02:11:17.011Z,81.30
2018-05-16T02:13:45.277Z,81.50
2018-05-16T02:16:13.546Z,82.10
2018-05-16T02:18:41.828Z,82.50
2018-05-16T02:21:10.338Z,82.40
2018-05-16T02:23:38.620Z,82.30
2018-05-16T02:26:06.904Z,83.60
2018-05-16T02:28:35.219Z,82.90
2018-05-16T02:31:03.507Z,82.10
2018-05-16T02:33:31.887Z,83.50
2018-05-16T02:36:00.181Z,83.00
2018-05-16T02:38:28.547Z,82.90
2018-05-16T02:40:57.034Z,82.80
2018-05-16T02:43:25.334Z,82.00
2018-05-16T02:45:53.717Z,81.80
2018-05-16T02:48:22.130Z,81.90
2018-05-16T02:50:51.148Z,82.20
2018-05-16T02:53:19.429Z,82.10
2018-05-16T02:55:47.734Z,81.30
2018-05-16T02:58:16.172Z,81.10
2018-05-16T03:00:44.853Z,80.90
2018-05-16T03:03:13.131Z,81.30
2018-05-16T03:05:41.620Z,80.40
2018-05-16T03:08:09.910Z,80.10
2018-05-16T03:10:38.172Z,80.80
2018-05-16T03:13:06.454Z,80.50
2018-05-16T03:15:34.726Z,81.70
2018-05-16T03:18:02.988Z,81.60
2018-05-16T03:20:31.253Z,81.70
2018-05-16T03:22:59.525Z,81.80
2018-05-16T03:25:27.861Z,83.10
2018-05-16T03:27:56.164Z,83.50
2018-05-16T03:30:24.493Z,83.70
2018-05-16T03:32:52.761Z,82.60
2018-05-16T03:35:21.037Z,82.30
2018-05-16T03:37:49.306Z,81.40
2018-05-16T03:40:17.604Z,81.70
2018-05-16T03:42:45.963Z,82.40
2018-05-16T03:45:14.249Z,82.70
2018-05-16T03:47:43.365Z,82.20
2018-05-16T03:50:12.422Z,82.60
2018-05-16T03:52:40.726Z,82.40
2018-05-16T03:55:09.787Z,82.90
2018-05-16T03:57:50.041Z,82.90
2018-05-16T04:03:35.060Z,83.60
2018-05-16T04:06:03.399Z,83.50
2018-05-16T04:08:31.688Z,84.30
2018-05-16T04:11:00.027Z,84.00
2018-05-16T04:13:28.313Z,84.00
2018-05-16T04:15:56.568Z,84.00
2018-05-16T04:18:25.642Z,84.20
2018-05-16T04:20:53.893Z,84.10
2018-05-16T04:23:22.162Z,83.90
2018-05-16T04:25:50.450Z,83.70
2018-05-16T04:28:18.738Z,83.60
2018-05-16T04:30:46.998Z,83.90
2018-05-16T04:33:15.272Z,83.20
2018-05-16T04:35:43.603Z,81.40
2018-05-16T04:38:11.982Z,80.40
2018-05-16T04:40:40.317Z,80.10
2018-05-16T04:43:08.617Z,80.10
2018-05-16T04:45:36.868Z,79.30
2018-05-16T04:48:06.063Z,79.00
2018-05-16T04:50:34.325Z,78.90
2018-05-16T04:53:02.646Z,78.20
2018-05-16T04:55:30.900Z,77.90
2018-05-16T04:57:59.934Z,77.60
2018-05-16T05:00:28.226Z,77.50
2018-05-16T05:02:56.491Z,77.30
2018-05-16T05:05:24.774Z,77.00
2018-05-16T05:07:53.038Z,76.70
2018-05-16T05:10:21.327Z,76.90
2018-05-16T05:12:49.594Z,76.20
2018-05-16T05:15:17.878Z,75.80
2018-05-16T05:17:46.438Z,75.60
2018-05-16T05:20:14.786Z,73.90
2018-05-16T05:22:43.822Z,71.80
2018-05-16T05:25:12.110Z,71.70
2018-05-16T05:27:40.435Z,71.20
2018-05-16T05:30:09.470Z,73.90
2018-05-16T05:32:37.771Z,73.70
2018-05-16T05:35:06.082Z,71.70
2018-05-16T05:37:35.126Z,71.00
2018-05-16T05:40:03.390Z,70.80
2018-05-16T05:42:31.659Z,70.70
2018-05-16T05:45:00.102Z,70.30
2018-05-16T05:47:28.373Z,71.00
2018-05-16T05:49:57.413Z,71.50
2018-05-16T05:52:25.694Z,71.50
2018-05-16T05:54:53.979Z,71.70
2018-05-16T05:57:22.259Z,68.70
2018-05-16T05:59:50.525Z,66.80
2018-05-16T06:02:18.824Z,68.10
2018-05-16T06:04:47.091Z,65.90
2018-05-16T06:07:15.363Z,65.10
2018-05-16T06:09:43.655Z,63.30
2018-05-16T06:12:11.967Z,63.40
2018-05-16T06:14:40.250Z,63.50
2018-05-16T06:17:08.518Z,63.50
2018-05-16T06:19:36.787Z,61.80
2018-05-16T06:22:05.046Z,60.50
2018-05-16T06:24:34.073Z,62.30
2018-05-16T06:27:02.451Z,62.20
2018-05-16T06:29:30.640Z,62.00
2018-05-16T06:31:58.898Z,62.00
2018-05-16T06:34:27.161Z,60.90
2018-05-16T06:36:55.686Z,60.60
2018-05-16T06:39:23.968Z,60.10
2018-05-16T06:41:52.264Z,60.00
2018-05-16T06:44:20.528Z,60.30
2018-05-16T06:46:48.780Z,61.20
2018-05-16T06:49:17.058Z,61.20
2018-05-16T06:51:45.320Z,63.90
2018-05-16T06:54:13.596Z,64.20
2018-05-16T06:56:41.906Z,63.20
2018-05-16T06:59:10.208Z,63.80
2018-05-16T07:01:38.487Z,64.50
2018-05-16T07:04:06.964Z,65.20
2018-05-16T07:06:35.984Z,64.50
2018-05-16T07:09:05.191Z,64.50
2018-05-16T07:11:33.471Z,66.20
2018-05-16T07:14:01.847Z,65.90
2018-05-16T07:16:30.105Z,68.80
2018-05-16T07:18:58.386Z,68.90
2018-05-16T07:21:26.666Z,67.10
2018-05-16T07:23:54.987Z,67.50
2018-05-16T07:26:24.026Z,69.30
2018-05-16T07:28:52.330Z,69.30
2018-05-16T07:31:20.638Z,69.40
2018-05-16T07:33:49.727Z,70.80
2018-05-16T07:36:18.907Z,70.10
2018-05-16T07:38:47.176Z,70.10
2018-05-16T07:41:16.969Z,70.30
2018-05-16T07:43:45.226Z,70.10
2018-05-16T07:46:13.533Z,68.30
2018-05-16T07:48:41.822Z,69.70
2018-05-16T07:51:10.941Z,68.50
2018-05-16T07:53:39.987Z,68.20
2018-05-16T07:56:08.326Z,68.10
2018-05-16T07:58:36.623Z,68.10
2018-05-16T08:01:04.889Z,69.40
2018-05-16T08:03:33.174Z,68.40
2018-05-16T08:06:01.460Z,71.10
2018-05-16T08:08:29.726Z,69.60
2018-05-16T08:10:58.093Z,70.50
2018-05-16T08:13:26.370Z,65.90
2018-05-16T08:15:54.791Z,67.40
2018-05-16T08:18:23.844Z,69.40
2018-05-16T08:20:52.137Z,69.20
2018-05-16T08:23:20.415Z,67.20
2018-05-16T08:25:48.690Z,68.10
2018-05-16T08:28:16.993Z,70.00
2018-05-16T08:30:46.040Z,65.50
2018-05-16T08:33:14.339Z,65.50
2018-05-16T08:35:42.615Z,64.80
2018-05-16T08:38:10.965Z,62.90
2018-05-16T08:40:39.229Z,65.10
2018-05-16T08:43:07.545Z,62.80
2018-05-16T08:45:35.764Z,63.90
2018-05-16T08:48:04.044Z,65.90
2018-05-16T08:50:32.353Z,65.00
2018-05-16T08:53:00.632Z,64.20
2018-05-16T08:55:28.902Z,65.50
2018-05-16T08:57:57.203Z,66.40
2018-05-16T09:00:26.966Z,66.80
2018-05-16T09:02:55.250Z,66.80
2018-05-16T09:05:23.573Z,65.90
2018-05-16T09:07:52.683Z,64.90
2018-05-16T09:10:21.708Z,67.30
2018-05-16T09:12:50.148Z,67.20
2018-05-16T09:15:18.534Z,65.70
2018-05-16T09:17:46.799Z,65.70
2018-05-16T09:20:15.846Z,65.50
2018-05-16T09:22:44.136Z,65.50
2018-05-16T09:25:12.514Z,66.00
2018-05-16T09:27:40.771Z,71.00
2018-05-16T09:30:09.017Z,66.60
2018-05-16T09:32:37.269Z,65.60
2018-05-16T09:35:06.488Z,65.30
2018-05-16T09:37:34.763Z,65.30
2018-05-16T09:40:03.041Z,62.60
2018-05-16T09:42:31.357Z,64.50
2018-05-16T09:44:59.734Z,63.70
2018-05-16T09:47:27.986Z,64.60
2018-05-16T09:49:56.255Z,63.50
2018-05-16T09:52:24.545Z,65.50
2018-05-16T09:54:52.823Z,63.50
2018-05-16T09:57:21.117Z,62.80
2018-05-16T09:59:49.378Z,60.90
2018-05-16T10:02:17.654Z,60.70
2018-05-16T10:04:45.925Z,61.10
2018-05-16T10:07:14.222Z,60.60
2018-05-16T10:09:42.590Z,59.90
2018-05-16T10:12:10.950Z,61.40
2018-05-16T10:14:39.211Z,62.20
2018-05-16T10:17:07.932Z,63.20
2018-05-16T10:19:36.197Z,62.40
2018-05-16T10:22:04.476Z,61.90
2018-05-16T10:24:32.756Z,63.00
2018-05-16T10:27:01.079Z,62.60
2018-05-16T10:29:29.341Z,62.20
2018-05-16T10:31:58.382Z,63.40
2018-05-16T10:34:26.678Z,63.30
2018-05-16T10:36:54.991Z,62.60
2018-05-16T10:39:23.276Z,64.20
2018-05-16T10:41:51.567Z,62.80
2018-05-16T10:44:19.853Z,63.30
2018-05-16T10:46:48.101Z,62.50
2018-05-16T10:49:16.453Z,61.70
2018-05-16T10:51:44.962Z,61.80
2018-05-16T10:54:13.242Z,62.80
2018-05-16T10:56:41.506Z,60.90
2018-05-16T10:59:09.807Z,61.10
2018-05-16T11:01:38.212Z,62.00
2018-05-16T11:04:06.569Z,61.70
2018-05-16T11:06:34.813Z,62.30
2018-05-16T11:09:03.073Z,59.90
2018-05-16T11:11:32.199Z,60.80
2018-05-16T11:14:00.660Z,60.70
2018-05-16T11:16:29.070Z,59.90
2018-05-16T11:18:57.330Z,61.60
2018-05-16T11:21:25.621Z,61.70
2018-05-16T11:23:53.892Z,62.20
2018-05-16T11:26:22.154Z,62.40
2018-05-16T11:28:50.442Z,61.80
2018-05-16T11:31:18.713Z,61.70
2018-05-16T11:33:46.963Z,61.60
2018-05-16T11:36:15.248Z,62.30
2018-05-16T11:38:43.494Z,63.10
2018-05-16T11:41:12.535Z,63.70
2018-05-16T11:43:40.782Z,63.50
2018-05-16T11:46:09.163Z,61.10
2018-05-16T11:48:38.310Z,62.00
2018-05-16T11:51:07.473Z,62.10
2018-05-16T11:53:35.850Z,61.70
2018-05-16T11:56:04.105Z,63.40
2018-05-16T11:58:32.442Z,62.70
2018-05-16T12:01:00.738Z,63.10
2018-05-16T12:03:29.764Z,62.50
2018-05-16T12:05:58.079Z,62.60
2018-05-16T12:08:27.124Z,61.90
2018-05-16T12:10:55.403Z,62.70
2018-05-16T12:13:23.786Z,62.60
2018-05-16T12:15:52.120Z,63.50
2018-05-16T12:18:20.337Z,61.60
2018-05-16T12:20:48.612Z,60.60
2018-05-16T12:23:16.871Z,61.00
2018-05-16T12:25:45.171Z,59.70
2018-05-16T12:28:13.601Z,59.40
2018-05-16T12:30:41.889Z,58.90
2018-05-16T12:33:10.934Z,59.10
2018-05-16T12:35:40.733Z,58.90
2018-05-16T12:38:09.005Z,58.90
2018-05-16T12:40:37.341Z,60.00
2018-05-16T12:43:16.198Z,59.00
2018-05-16T12:45:44.529Z,59.00
2018-05-16T12:48:12.779Z,59.40
2018-05-16T12:50:41.021Z,60.30
2018-05-16T12:53:09.406Z,60.50
2018-05-16T12:55:37.731Z,59.20
2018-05-16T12:58:05.962Z,59.40
2018-05-16T13:00:34.226Z,59.30
2018-05-16T13:03:02.536Z,61.00
2018-05-16T13:05:30.789Z,60.10
2018-05-16T13:07:59.083Z,59.80
2018-05-16T13:10:28.879Z,59.00
2018-05-16T13:12:57.225Z,59.00
2018-05-16T13:15:25.537Z,59.80
2018-05-16T13:17:53.809Z,60.60
2018-05-16T13:20:22.062Z,60.00
2018-05-16T13:22:50.304Z,60.00
2018-05-16T13:25:18.581Z,61.10
2018-05-16T13:27:47.631Z,60.40
2018-05-16T13:30:15.959Z,60.40
2018-05-16T13:32:44.995Z,61.40
2018-05-16T13:35:13.459Z,61.20
2018-05-16T13:37:41.753Z,62.10
2018-05-16T13:40:10.019Z,63.10
2018-05-16T13:42:38.295Z,62.90
2018-05-16T13:45:06.554Z,62.50
2018-05-16T13:47:34.844Z,62.60
2018-05-16T13:50:03.112Z,63.60
2018-05-16T13:52:31.375Z,63.00
2018-05-16T13:54:59.646Z,62.90
2018-05-16T13:57:27.985Z,63.40
2018-05-16T13:59:56.394Z,64.50
2018-05-16T14:02:24.658Z,64.50
2018-05-16T14:04:52.920Z,64.00
2018-05-16T14:07:21.963Z,62.80
2018-05-16T14:09:50.289Z,62.80
2018-05-16T14:12:19.340Z,63.10
2018-05-16T14:14:47.637Z,63.10
2018-05-16T14:17:15.986Z,62.10
2018-05-16T14:19:44.247Z,63.10
2018-05-16T14:22:12.540Z,62.70
2018-05-16T14:24:40.804Z,63.40
2018-05-16T14:27:09.070Z,61.70
2018-05-16T14:29:37.359Z,62.60
2018-05-16T14:32:05.618Z,61.30
2018-05-16T14:34:33.883Z,62.20
2018-05-16T14:37:02.259Z,61.70
2018-05-16T14:39:30.644Z,61.50
2018-05-16T14:41:58.895Z,61.00
2018-05-16T14:44:28.850Z,60.90
2018-05-16T14:46:57.161Z,61.60
2018-05-16T14:49:25.462Z,61.40
2018-05-16T14:51:54.486Z,61.50
2018-05-16T14:54:22.821Z,61.50
2018-05-16T14:56:51.139Z,63.60
2018-05-16T14:59:19.414Z,65.30
2018-05-16T15:01:47.809Z,66.20
2018-05-16T15:04:16.014Z,69.80
2018-05-16T15:06:45.095Z,78.70
2018-05-16T15:09:14.141Z,80.80
2018-05-16T15:11:42.688Z,80.60
2018-05-16T15:14:11.730Z,83.20
2018-05-16T15:16:40.024Z,83.10
2018-05-16T15:19:08.299Z,84.40
2018-05-16T15:21:37.412Z,86.30
2018-05-16T15:24:05.665Z,86.30
2018-05-16T15:26:33.974Z,84.60
2018-05-16T15:29:03.008Z,84.30
2018-05-16T15:31:31.288Z,84.40
2018-05-16T15:33:59.573Z,86.60
2018-05-16T15:36:28.042Z,82.20
2018-05-16T15:38:56.290Z,86.80
2018-05-16T15:41:25.342Z,87.90
2018-05-16T15:43:54.501Z,88.10
2018-05-16T15:46:22.915Z,87.50
2018-05-16T15:48:51.244Z,88.40
2018-05-16T15:51:19.591Z,87.60
2018-05-16T15:53:49.383Z,82.60
2018-05-16T15:56:18.473Z,82.00
2018-05-16T15:58:46.786Z,81.10
2018-05-16T16:01:15.198Z,85.70
2018-05-16T16:03:44.310Z,86.00
2018-05-16T16:06:12.622Z,85.90
2018-05-16T16:08:41.663Z,90.40
2018-05-16T16:11:09.942Z,90.00
2018-05-16T16:13:38.242Z,90.40
2018-05-16T16:16:06.531Z,88.20
2018-05-16T16:18:35.638Z,89.80
2018-05-16T16:21:04.691Z,90.10
2018-05-16T16:23:32.983Z,90.10
2018-05-16T16:26:02.184Z,89.50
2018-05-16T16:28:32.068Z,89.40
2018-05-16T16:31:00.333Z,89.50
2018-05-16T16:33:28.634Z,90.10
2018-05-16T16:35:56.912Z,90.00
2018-05-16T16:38:25.200Z,90.40
2018-05-16T16:40:53.497Z,90.20
2018-05-16T16:43:21.928Z,90.00
2018-05-16T16:45:50.198Z,90.00
2018-05-16T16:48:18.491Z,88.20
2018-05-16T16:50:46.777Z,87.70
2018-05-16T16:53:15.543Z,87.10
2018-05-16T16:55:43.835Z,87.80
2018-05-16T16:58:13.617Z,86.20
2018-05-16T17:00:41.903Z,86.10
2018-05-16T17:03:10.192Z,85.70
2018-05-16T17:05:38.486Z,83.90
2018-05-16T17:08:07.572Z,84.30
2018-05-16T17:10:35.857Z,84.20
2018-05-16T17:13:05.041Z,84.60
2018-05-16T17:15:33.340Z,85.00
2018-05-16T17:18:01.625Z,86.10
2018-05-16T17:20:29.941Z,86.00
2018-05-16T17:22:58.208Z,86.10
2018-05-16T17:25:26.501Z,85.50
2018-05-16T17:27:54.771Z,84.90
2018-05-16T17:30:23.149Z,84.50
2018-05-16T17:32:52.123Z,83.90
2018-05-16T17:35:20.479Z,83.70
2018-05-16T17:37:48.779Z,82.60
2018-05-16T17:40:17.045Z,82.90
2018-05-16T17:42:45.354Z,83.10
2018-05-16T17:45:15.047Z,82.20
2018-05-16T17:47:43.394Z,82.90
2018-05-16T17:50:11.677Z,82.60
2018-05-16T17:52:40.039Z,81.00
2018-05-16T17:55:08.395Z,81.80
2018-05-16T17:57:36.734Z,80.40
2018-05-16T18:00:05.014Z,80.50
2018-05-16T18:02:33.328Z,81.30
2018-05-16T18:05:02.358Z,79.90
2018-05-16T18:07:30.663Z,80.00
2018-05-16T18:09:59.010Z,80.80
2018-05-16T18:12:27.436Z,80.20
2018-05-16T18:15:21.083Z,78.50
2018-05-16T18:17:50.337Z,78.60
2018-05-16T18:20:18.646Z,81.30
2018-05-16T18:22:47.054Z,80.50
2018-05-16T18:25:15.743Z,82.20
2018-05-16T18:27:44.059Z,83.30
2018-05-16T18:30:12.459Z,82.10
2018-05-16T18:32:40.732Z,78.40
2018-05-16T18:35:09.025Z,80.70
2018-05-16T18:37:37.306Z,78.90
2018-05-16T18:40:05.605Z,77.00
2018-05-16T18:42:33.952Z,80.30
2018-05-16T18:45:02.164Z,79.30
2018-05-16T18:47:31.237Z,79.60
2018-05-16T18:49:59.543Z,79.40
2018-05-16T18:52:28.627Z,78.20
2018-05-16T18:54:56.920Z,78.20
2018-05-16T18:57:25.197Z,77.90
2018-05-16T18:59:53.523Z,79.00
2018-05-16T19:02:21.813Z,78.90
2018-05-16T19:04:50.233Z,79.70
2018-05-16T19:07:18.548Z,79.30
2018-05-16T19:09:46.805Z,80.60
2018-05-16T19:12:15.148Z,79.20
2018-05-16T19:14:44.219Z,77.60
2018-05-16T19:17:13.269Z,77.10
2018-05-16T19:19:41.544Z,77.10
2018-05-16T19:22:09.835Z,79.20
2018-05-16T19:24:38.098Z,75.20
2018-05-16T19:27:06.557Z,77.80
2018-05-16T19:29:34.850Z,78.40
2018-05-16T19:32:03.117Z,77.80
2018-05-16T19:34:31.401Z,75.40
2018-05-16T19:36:59.670Z,74.10
2018-05-16T19:39:28.146Z,74.60
2018-05-16T19:41:56.497Z,78.40
2018-05-16T19:44:24.800Z,75.50
2018-05-16T19:46:53.234Z,75.60
2018-05-16T19:49:21.492Z,77.50
2018-05-16T19:51:50.688Z,76.00
2018-05-16T19:54:19.051Z,76.40
2018-05-16T19:56:47.379Z,75.00
2018-05-16T19:59:16.420Z,76.20
2018-05-16T20:01:44.749Z,76.20
2018-05-16T20:04:13.114Z,76.20
2018-05-16T20:06:41.425Z,74.30
2018-05-16T20:09:09.717Z,73.90
2018-05-16T20:11:38.011Z,76.20
2018-05-16T20:14:06.298Z,77.10
2018-05-16T20:16:35.353Z,76.70
2018-05-16T20:19:03.675Z,76.70
2018-05-16T20:21:32.154Z,73.50
2018-05-16T20:24:00.434Z,77.60
2018-05-16T20:26:28.766Z,75.00
2018-05-16T20:28:57.027Z,77.90
2018-05-16T20:31:25.326Z,75.90
2018-05-16T20:33:53.620Z,77.50
2018-05-16T20:36:21.941Z,75.60
2018-05-16T20:38:50.947Z,74.30
2018-05-16T20:41:19.254Z,77.00
2018-05-16T20:43:48.425Z,77.90
2018-05-16T20:46:16.706Z,77.00
2018-05-16T20:48:44.989Z,75.40
2018-05-16T20:51:13.259Z,77.00
2018-05-16T20:53:41.522Z,77.30
2018-05-16T20:56:09.799Z,78.10
2018-05-16T20:58:38.077Z,76.40
2018-05-16T21:01:06.412Z,78.50
2018-05-16T21:03:34.699Z,79.80
2018-05-16T21:06:02.989Z,79.30
2018-05-16T21:08:31.262Z,80.70
2018-05-16T21:10:59.553Z,80.20
2018-05-16T21:13:27.867Z,82.10
2018-05-16T21:15:56.169Z,79.50
2018-05-16T21:18:24.454Z,77.80
2018-05-16T21:20:52.727Z,77.80
2018-05-16T21:23:21.042Z,79.20
2018-05-16T21:25:49.327Z,78.50
2018-05-16T21:28:17.617Z,81.00
2018-05-16T21:30:46.657Z,83.20
2018-05-16T21:33:14.958Z,82.30
2018-05-16T21:35:43.195Z,78.20
2018-05-16T21:38:11.538Z,80.00
2018-05-16T21:40:40.554Z,82.30
2018-05-16T21:43:08.828Z,82.30
2018-05-16T21:45:37.945Z,82.00
2018-05-16T21:48:06.210Z,81.90
2018-05-16T21:50:34.518Z,80.80
2018-05-16T21:53:02.783Z,83.90
2018-05-16T21:55:31.060Z,82.40
2018-05-16T21:57:59.333Z,83.10
2018-05-16T22:00:27.625Z,84.60
2018-05-16T22:02:56.102Z,82.30
2018-05-16T22:05:24.391Z,82.00
2018-05-16T22:07:52.771Z,81.90
2018-05-16T22:10:21.051Z,82.90
2018-05-16T22:12:49.295Z,84.50
2018-05-16T22:15:17.580Z,83.00
2018-05-16T22:17:45.854Z,82.40
2018-05-16T22:20:14.148Z,81.90
2018-05-16T22:22:42.563Z,83.80
2018-05-16T22:25:11.058Z,84.60
2018-05-16T22:27:39.314Z,83.20
2018-05-16T22:30:07.618Z,84.80
2018-05-16T22:32:35.919Z,85.40
2018-05-16T22:35:04.230Z,81.50
2018-05-16T22:37:33.253Z,82.10
2018-05-16T22:40:01.545Z,82.10
2018-05-16T22:42:29.884Z,84.50
2018-05-16T22:44:58.272Z,84.90
2018-05-16T22:47:26.558Z,82.80
2018-05-16T22:49:54.815Z,84.60
2018-05-16T22:52:23.115Z,82.70
2018-05-16T22:54:51.380Z,82.90
2018-05-16T22:57:19.746Z,81.60
2018-05-16T22:59:48.033Z,83.60
2018-05-16T23:02:16.301Z,82.70
2018-05-16T23:04:44.592Z,84.10
2018-05-16T23:07:12.834Z,84.50
2018-05-16T23:09:41.131Z,79.90
2018-05-16T23:12:09.425Z,82.90
2018-05-16T23:14:37.708Z,83.00
2018-05-16T23:17:05.965Z,82.50
2018-05-16T23:19:34.263Z,79.30
2018-05-16T23:22:02.547Z,81.30
2018-05-16T23:24:30.811Z,84.40
2018-05-16T23:26:59.070Z,84.90
2018-05-16T23:29:27.368Z,81.80
2018-05-16T23:31:55.791Z,81.80
2018-05-16T23:34:24.815Z,83.60
2018-05-16T23:36:53.129Z,83.80
2018-05-16T23:39:21.418Z,79.30
2018-05-16T23:41:49.717Z,79.90
2018-05-16T23:44:18.105Z,83.90
2018-05-16T23:46:46.397Z,80.10
2018-05-16T23:49:14.678Z,78.50
2018-05-16T23:51:42.954Z,77.00
2018-05-16T23:54:11.885Z,80.30
2018-05-16T23:56:40.917Z,77.60
2018-05-16T23:59:09.183Z,77.60
